Springfield, NE (68059)

12:25 PM CST on December 08, 2016 (GMT -0600)
Cedar Creek | | Change Station

Elev 1014 ft 41.04 °N, 96.10 °W | Updated 6 seconds ago

Partly Cloudy
Partly Cloudy
20.3 °F
Feels Like 9 °F
N
9.6
Wind Variable Wind from NW
Gusts 12.3 mph

Today
High -- | Low -- °F
--% Chance of Precip.
Yesterday
High -- | Low -- °F
Precip. -- in
Pressure 30.62 in
Visibility 10.0 miles
Clouds Scattered Clouds 2700 ft
Windchill 9 °F
Dew Point 6 °F
Humidity 54%
Rainfall 0.00 in
Snow Depth Not available.
7:37 AM 4:55 PM
Waxing Gibbous, 65% visible
METAR KMLE 081815Z AUTO 30015G20KT 10SM SCT027 M05/M12 A3062 RMK AO2 T10501125
Pressure 30.62 in
Visibility 10.0 miles
Clouds Scattered Clouds 2700 ft
Windchill 9 °F
Dew Point 6 °F
Humidity 54%
Rainfall 0.00 in
Snow Depth Not available.
7:37 AM 4:55 PM
Waxing Gibbous, 65% visible
METAR KMLE 081815Z AUTO 30015G20KT 10SM SCT027 M05/M12 A3062 RMK AO2 T10501125

10-Day Weather Forecast

Almanac

Astronomy

Dec. 08, 2016 Rise Set
Actual Time
Civil Twilight
Nautical Twilight
Astronomical Twilight
Moon
Length of Visible Light
Length of Day
Tomorrow will be .
, % of the Moon is Illuminated

Today's Extremes

State Highs State Lows

Community

WunderPhotos

Upload Photos

1,956,277 photos uploaded!

WunderBlog® & News

Nearby

Air Quality

  Air Quality AQ Index Pollutant
Not available.

Snow Depth

Station Depth Elevation

Earthquake Activity

City Distance Mag. Time & Date
Minimum magnitude displayed is 2.5.

Coastal Water Temperatures

Place Temperature

Stations

Nearby Weather Stations

Station Location Temp. Windchill Dew Point Humidity Wind Precip. Elev Updated Type
                   

Watches & Warnings

There are currently no watches in effect.